sensor_id;sensor_type;location;lat;lon;timestamp;temperature;humidity
25973;DHT22;13765;51.166;4.466;2022-10-16T00:01:29;14.50;99.90
25973;DHT22;13765;51.166;4.466;2022-10-16T00:03:56;14.60;99.90
25973;DHT22;13765;51.166;4.466;2022-10-16T00:06:26;14.60;99.90
25973;DHT22;13765;51.166;4.466;2022-10-16T00:08:57;14.60;99.90
25973;DHT22;13765;51.166;4.466;2022-10-16T00:11:26;14.60;99.90
25973;DHT22;13765;51.166;4.466;2022-10-16T00:13:56;14.70;99.90
25973;DHT22;13765;51.166;4.466;2022-10-16T00:16:23;14.60;99.90
25973;DHT22;13765;51.166;4.466;2022-10-16T00:18:50;14.70;99.90
25973;DHT22;13765;51.166;4.466;2022-10-16T00:21:20;14.60;99.90
25973;DHT22;13765;51.166;4.466;2022-10-16T00:23:46;14.60;99.90
25973;DHT22;13765;51.166;4.466;2022-10-16T00:26:13;14.60;99.90
25973;DHT22;13765;51.166;4.466;2022-10-16T00:28:40;14.50;99.90
25973;DHT22;13765;51.166;4.466;2022-10-16T00:31:08;14.60;99.90
25973;DHT22;13765;51.166;4.466;2022-10-16T00:33:35;14.60;99.90
25973;DHT22;13765;51.166;4.466;2022-10-16T00:36:04;14.60;99.90
25973;DHT22;13765;51.166;4.466;2022-10-16T00:38:33;14.60;99.90
25973;DHT22;13765;51.166;4.466;2022-10-16T00:40:59;14.60;99.90
25973;DHT22;13765;51.166;4.466;2022-10-16T00:43:43;14.60;99.90
25973;DHT22;13765;51.166;4.466;2022-10-16T00:48:54;14.50;99.90
25973;DHT22;13765;51.166;4.466;2022-10-16T00:51:40;14.50;99.90
25973;DHT22;13765;51.166;4.466;2022-10-16T00:54:17;14.60;99.90
25973;DHT22;13765;51.166;4.466;2022-10-16T00:56:45;14.50;99.90
25973;DHT22;13765;51.166;4.466;2022-10-16T00:59:24;14.50;99.90
25973;DHT22;13765;51.166;4.466;2022-10-16T01:01:56;14.50;99.90
25973;DHT22;13765;51.166;4.466;2022-10-16T01:04:23;14.50;99.90
25973;DHT22;13765;51.166;4.466;2022-10-16T01:12:33;14.30;99.90
25973;DHT22;13765;51.166;4.466;2022-10-16T01:15:14;14.20;99.90
25973;DHT22;13765;51.166;4.466;2022-10-16T01:20:34;14.30;99.90
25973;DHT22;13765;51.166;4.466;2022-10-16T01:23:25;14.40;99.90
25973;DHT22;13765;51.166;4.466;2022-10-16T01:28:50;14.20;99.90
25973;DHT22;13765;51.166;4.466;2022-10-16T01:31:24;14.20;99.90
25973;DHT22;13765;51.166;4.466;2022-10-16T01:34:03;14.20;99.90
25973;DHT22;13765;51.166;4.466;2022-10-16T01:36:42;14.30;99.90
25973;DHT22;13765;51.166;4.466;2022-10-16T01:39:14;14.30;99.90
25973;DHT22;13765;51.166;4.466;2022-10-16T01:41:46;14.40;99.90
25973;DHT22;13765;51.166;4.466;2022-10-16T01:44:19;14.40;99.90
25973;DHT22;13765;51.166;4.466;2022-10-16T01:46:50;14.40;99.90
25973;DHT22;13765;51.166;4.466;2022-10-16T01:49:23;14.20;99.90
25973;DHT22;13765;51.166;4.466;2022-10-16T01:51:55;14.20;99.90
25973;DHT22;13765;51.166;4.466;2022-10-16T01:54:28;14.20;99.90
25973;DHT22;13765;51.166;4.466;2022-10-16T01:57:01;14.20;99.90
25973;DHT22;13765;51.166;4.466;2022-10-16T01:59:31;14.20;99.90
25973;DHT22;13765;51.166;4.466;2022-10-16T02:02:05;14.20;99.90
25973;DHT22;13765;51.166;4.466;2022-10-16T02:04:34;14.20;99.90
25973;DHT22;13765;51.166;4.466;2022-10-16T02:07:04;14.20;99.90
25973;DHT22;13765;51.166;4.466;2022-10-16T02:09:32;14.20;99.90
25973;DHT22;13765;51.166;4.466;2022-10-16T02:12:06;14.10;99.90
25973;DHT22;13765;51.166;4.466;2022-10-16T02:14:39;14.00;99.90
25973;DHT22;13765;51.166;4.466;2022-10-16T02:17:13;14.00;99.90
25973;DHT22;13765;51.166;4.466;2022-10-16T02:19:40;14.00;99.90
25973;DHT22;13765;51.166;4.466;2022-10-16T02:22:11;14.10;99.90
25973;DHT22;13765;51.166;4.466;2022-10-16T02:24:54;14.10;99.90
25973;DHT22;13765;51.166;4.466;2022-10-16T02:32:36;14.00;99.90
25973;DHT22;13765;51.166;4.466;2022-10-16T02:35:04;13.90;99.90
25973;DHT22;13765;51.166;4.466;2022-10-16T02:37:34;13.90;99.90
25973;DHT22;13765;51.166;4.466;2022-10-16T02:40:00;14.00;99.90
25973;DHT22;13765;51.166;4.466;2022-10-16T02:42:36;14.00;99.90
25973;DHT22;13765;51.166;4.466;2022-10-16T02:45:08;14.00;99.90
25973;DHT22;13765;51.166;4.466;2022-10-16T02:47:35;14.00;99.90
25973;DHT22;13765;51.166;4.466;2022-10-16T02:50:00;14.00;99.90
25973;DHT22;13765;51.166;4.466;2022-10-16T02:52:26;14.10;99.90
25973;DHT22;13765;51.166;4.466;2022-10-16T02:54:56;14.00;99.90
25973;DHT22;13765;51.166;4.466;2022-10-16T02:57:25;14.00;99.90
25973;DHT22;13765;51.166;4.466;2022-10-16T02:59:54;14.00;99.90
25973;DHT22;13765;51.166;4.466;2022-10-16T03:02:20;14.00;99.90
25973;DHT22;13765;51.166;4.466;2022-10-16T03:04:46;13.90;99.90
25973;DHT22;13765;51.166;4.466;2022-10-16T03:07:12;13.90;99.90
25973;DHT22;13765;51.166;4.466;2022-10-16T03:09:40;13.90;99.90
25973;DHT22;13765;51.166;4.466;2022-10-16T03:12:10;13.90;99.90
25973;DHT22;13765;51.166;4.466;2022-10-16T03:14:37;13.90;99.90
25973;DHT22;13765;51.166;4.466;2022-10-16T03:17:05;13.90;99.90
25973;DHT22;13765;51.166;4.466;2022-10-16T03:19:34;14.00;99.90
25973;DHT22;13765;51.166;4.466;2022-10-16T03:22:01;14.00;99.90
25973;DHT22;13765;51.166;4.466;2022-10-16T03:24:29;14.10;99.90
25973;DHT22;13765;51.166;4.466;2022-10-16T03:26:57;14.10;99.90
25973;DHT22;13765;51.166;4.466;2022-10-16T03:29:23;14.10;99.90
25973;DHT22;13765;51.166;4.466;2022-10-16T03:31:53;14.10;99.90
25973;DHT22;13765;51.166;4.466;2022-10-16T03:34:19;14.10;99.90
25973;DHT22;13765;51.166;4.466;2022-10-16T03:36:45;14.20;99.90
25973;DHT22;13765;51.166;4.466;2022-10-16T03:39:13;14.00;99.90
25973;DHT22;13765;51.166;4.466;2022-10-16T03:41:39;14.00;99.90
25973;DHT22;13765;51.166;4.466;2022-10-16T03:44:05;14.00;99.90
25973;DHT22;13765;51.166;4.466;2022-10-16T03:46:33;14.00;99.90
25973;DHT22;13765;51.166;4.466;2022-10-16T03:49:00;13.90;99.90
25973;DHT22;13765;51.166;4.466;2022-10-16T03:51:31;13.90;99.90
25973;DHT22;13765;51.166;4.466;2022-10-16T03:53:57;13.90;99.90
25973;DHT22;13765;51.166;4.466;2022-10-16T03:56:24;13.90;99.90
25973;DHT22;13765;51.166;4.466;2022-10-16T03:58:49;13.90;99.90
25973;DHT22;13765;51.166;4.466;2022-10-16T04:01:18;14.00;99.90
25973;DHT22;13765;51.166;4.466;2022-10-16T04:03:44;14.00;99.90
25973;DHT22;13765;51.166;4.466;2022-10-16T04:06:10;14.00;99.90
25973;DHT22;13765;51.166;4.466;2022-10-16T04:08:36;13.90;99.90
25973;DHT22;13765;51.166;4.466;2022-10-16T04:11:02;14.00;99.90
25973;DHT22;13765;51.166;4.466;2022-10-16T04:13:30;14.10;99.90
25973;DHT22;13765;51.166;4.466;2022-10-16T04:15:56;14.00;99.90
25973;DHT22;13765;51.166;4.466;2022-10-16T04:18:22;14.00;99.90
25973;DHT22;13765;51.166;4.466;2022-10-16T04:20:48;14.00;99.90
25973;DHT22;13765;51.166;4.466;2022-10-16T04:23:14;14.00;99.90
25973;DHT22;13765;51.166;4.466;2022-10-16T04:25:42;13.90;99.90
25973;DHT22;13765;51.166;4.466;2022-10-16T04:28:11;13.90;99.90
25973;DHT22;13765;51.166;4.466;2022-10-16T04:30:40;13.90;99.90
25973;DHT22;13765;51.166;4.466;2022-10-16T04:33:05;13.80;99.90
25973;DHT22;13765;51.166;4.466;2022-10-16T04:35:31;13.90;99.90
25973;DHT22;13765;51.166;4.466;2022-10-16T04:37:59;13.80;99.90
25973;DHT22;13765;51.166;4.466;2022-10-16T04:40:26;13.80;99.90
25973;DHT22;13765;51.166;4.466;2022-10-16T04:42:53;13.90;99.90
25973;DHT22;13765;51.166;4.466;2022-10-16T04:45:19;13.90;99.90
25973;DHT22;13765;51.166;4.466;2022-10-16T04:47:45;14.00;99.90
25973;DHT22;13765;51.166;4.466;2022-10-16T04:50:10;14.00;99.90
25973;DHT22;13765;51.166;4.466;2022-10-16T04:52:38;14.00;99.90
25973;DHT22;13765;51.166;4.466;2022-10-16T04:55:05;14.00;99.90
25973;DHT22;13765;51.166;4.466;2022-10-16T04:57:31;13.90;99.90
25973;DHT22;13765;51.166;4.466;2022-10-16T04:59:59;13.90;99.90
25973;DHT22;13765;51.166;4.466;2022-10-16T05:02:25;13.80;99.90
25973;DHT22;13765;51.166;4.466;2022-10-16T05:04:51;13.90;99.90
25973;DHT22;13765;51.166;4.466;2022-10-16T05:07:18;13.80;99.90
25973;DHT22;13765;51.166;4.466;2022-10-16T05:09:44;13.70;99.90
25973;DHT22;13765;51.166;4.466;2022-10-16T05:12:10;13.60;99.90
25973;DHT22;13765;51.166;4.466;2022-10-16T05:14:36;13.60;99.90
25973;DHT22;13765;51.166;4.466;2022-10-16T05:17:02;13.60;99.90
25973;DHT22;13765;51.166;4.466;2022-10-16T05:19:30;13.60;99.90
25973;DHT22;13765;51.166;4.466;2022-10-16T05:21:56;13.60;99.90
25973;DHT22;13765;51.166;4.466;2022-10-16T05:24:24;13.70;99.90
25973;DHT22;13765;51.166;4.466;2022-10-16T05:26:53;13.70;99.90
25973;DHT22;13765;51.166;4.466;2022-10-16T05:29:23;13.60;99.90
25973;DHT22;13765;51.166;4.466;2022-10-16T05:31:52;13.70;99.90
25973;DHT22;13765;51.166;4.466;2022-10-16T05:34:19;13.70;99.90
25973;DHT22;13765;51.166;4.466;2022-10-16T05:36:47;13.60;99.90
25973;DHT22;13765;51.166;4.466;2022-10-16T05:39:15;13.70;99.90
25973;DHT22;13765;51.166;4.466;2022-10-16T05:41:42;13.80;99.90
25973;DHT22;13765;51.166;4.466;2022-10-16T05:44:10;13.80;99.90
25973;DHT22;13765;51.166;4.466;2022-10-16T05:46:36;13.70;99.90
25973;DHT22;13765;51.166;4.466;2022-10-16T05:49:05;13.70;99.90
25973;DHT22;13765;51.166;4.466;2022-10-16T05:51:33;13.80;99.90
25973;DHT22;13765;51.166;4.466;2022-10-16T05:54:01;13.60;99.90
25973;DHT22;13765;51.166;4.466;2022-10-16T05:56:27;13.60;99.90
25973;DHT22;13765;51.166;4.466;2022-10-16T05:58:55;13.60;99.90
25973;DHT22;13765;51.166;4.466;2022-10-16T06:01:23;13.70;99.90
25973;DHT22;13765;51.166;4.466;2022-10-16T06:03:51;13.60;99.90
25973;DHT22;13765;51.166;4.466;2022-10-16T06:06:20;13.60;99.90
25973;DHT22;13765;51.166;4.466;2022-10-16T06:08:47;13.60;99.90
25973;DHT22;13765;51.166;4.466;2022-10-16T06:11:22;13.60;99.90
25973;DHT22;13765;51.166;4.466;2022-10-16T06:13:53;13.50;99.90
25973;DHT22;13765;51.166;4.466;2022-10-16T06:16:26;13.50;99.90
25973;DHT22;13765;51.166;4.466;2022-10-16T06:18:53;13.60;99.90
25973;DHT22;13765;51.166;4.466;2022-10-16T06:21:24;13.60;99.90
25973;DHT22;13765;51.166;4.466;2022-10-16T06:23:53;13.60;99.90
25973;DHT22;13765;51.166;4.466;2022-10-16T06:26:24;13.60;99.90
25973;DHT22;13765;51.166;4.466;2022-10-16T06:28:57;13.60;99.90
25973;DHT22;13765;51.166;4.466;2022-10-16T06:31:27;13.60;99.90
25973;DHT22;13765;51.166;4.466;2022-10-16T06:33:58;13.70;99.90
25973;DHT22;13765;51.166;4.466;2022-10-16T06:36:29;13.70;99.90
25973;DHT22;13765;51.166;4.466;2022-10-16T06:38:55;13.70;99.90
25973;DHT22;13765;51.166;4.466;2022-10-16T06:41:24;13.70;99.90
25973;DHT22;13765;51.166;4.466;2022-10-16T06:43:50;13.70;99.90
25973;DHT22;13765;51.166;4.466;2022-10-16T06:46:19;13.70;99.90
25973;DHT22;13765;51.166;4.466;2022-10-16T06:48:46;13.80;99.90
25973;DHT22;13765;51.166;4.466;2022-10-16T06:51:19;13.70;99.90
25973;DHT22;13765;51.166;4.466;2022-10-16T06:53:49;13.80;99.90
25973;DHT22;13765;51.166;4.466;2022-10-16T06:56:20;13.70;99.90
25973;DHT22;13765;51.166;4.466;2022-10-16T06:58:47;13.80;99.90
25973;DHT22;13765;51.166;4.466;2022-10-16T07:01:15;13.80;99.90
25973;DHT22;13765;51.166;4.466;2022-10-16T07:03:44;13.80;99.90
25973;DHT22;13765;51.166;4.466;2022-10-16T07:06:15;13.80;99.90
25973;DHT22;13765;51.166;4.466;2022-10-16T07:08:43;13.80;99.90
25973;DHT22;13765;51.166;4.466;2022-10-16T07:11:16;13.90;99.90
25973;DHT22;13765;51.166;4.466;2022-10-16T07:13:46;13.90;99.90
25973;DHT22;13765;51.166;4.466;2022-10-16T07:16:17;13.90;99.90
25973;DHT22;13765;51.166;4.466;2022-10-16T07:18:44;14.00;99.90
25973;DHT22;13765;51.166;4.466;2022-10-16T07:21:32;14.10;99.90
25973;DHT22;13765;51.166;4.466;2022-10-16T07:24:01;14.20;99.90
25973;DHT22;13765;51.166;4.466;2022-10-16T07:26:29;14.20;99.90
25973;DHT22;13765;51.166;4.466;2022-10-16T07:28:57;14.20;99.90
25973;DHT22;13765;51.166;4.466;2022-10-16T07:31:23;14.30;99.90
25973;DHT22;13765;51.166;4.466;2022-10-16T07:33:51;14.40;99.90
25973;DHT22;13765;51.166;4.466;2022-10-16T07:36:20;14.50;99.90
25973;DHT22;13765;51.166;4.466;2022-10-16T07:38:50;14.50;99.90
25973;DHT22;13765;51.166;4.466;2022-10-16T07:41:21;14.60;99.90
25973;DHT22;13765;51.166;4.466;2022-10-16T07:43:49;14.60;99.90
25973;DHT22;13765;51.166;4.466;2022-10-16T07:46:19;14.60;99.90
25973;DHT22;13765;51.166;4.466;2022-10-16T07:48:47;14.60;99.90
25973;DHT22;13765;51.166;4.466;2022-10-16T07:51:23;14.80;99.90
25973;DHT22;13765;51.166;4.466;2022-10-16T07:53:52;14.70;99.90
25973;DHT22;13765;51.166;4.466;2022-10-16T07:56:18;14.80;99.90
25973;DHT22;13765;51.166;4.466;2022-10-16T07:58:45;14.80;99.90
25973;DHT22;13765;51.166;4.466;2022-10-16T08:01:16;14.90;99.90
25973;DHT22;13765;51.166;4.466;2022-10-16T08:03:44;14.90;99.90
25973;DHT22;13765;51.166;4.466;2022-10-16T08:06:10;14.80;99.90
25973;DHT22;13765;51.166;4.466;2022-10-16T08:08:36;14.90;99.90
25973;DHT22;13765;51.166;4.466;2022-10-16T08:11:02;14.90;99.90
25973;DHT22;13765;51.166;4.466;2022-10-16T08:13:31;15.00;99.90
25973;DHT22;13765;51.166;4.466;2022-10-16T08:15:58;15.00;99.90
25973;DHT22;13765;51.166;4.466;2022-10-16T08:18:24;15.10;99.90
25973;DHT22;13765;51.166;4.466;2022-10-16T08:20:56;15.30;99.90
25973;DHT22;13765;51.166;4.466;2022-10-16T08:23:23;15.40;99.90
25973;DHT22;13765;51.166;4.466;2022-10-16T08:25:52;15.40;99.90
25973;DHT22;13765;51.166;4.466;2022-10-16T08:28:18;15.40;99.90
25973;DHT22;13765;51.166;4.466;2022-10-16T08:30:45;15.50;99.90
25973;DHT22;13765;51.166;4.466;2022-10-16T08:33:11;15.50;99.90
25973;DHT22;13765;51.166;4.466;2022-10-16T08:35:37;15.50;99.90
25973;DHT22;13765;51.166;4.466;2022-10-16T08:38:04;15.60;99.90
25973;DHT22;13765;51.166;4.466;2022-10-16T08:40:36;15.80;99.90
25973;DHT22;13765;51.166;4.466;2022-10-16T08:48:46;16.20;99.90
25973;DHT22;13765;51.166;4.466;2022-10-16T08:51:32;16.40;99.90
25973;DHT22;13765;51.166;4.466;2022-10-16T08:54:21;16.60;99.90
25973;DHT22;13765;51.166;4.466;2022-10-16T08:56:48;16.70;99.90
25973;DHT22;13765;51.166;4.466;2022-10-16T08:59:18;16.90;99.90
25973;DHT22;13765;51.166;4.466;2022-10-16T09:01:46;16.90;99.90
25973;DHT22;13765;51.166;4.466;2022-10-16T09:07:29;16.90;99.90
25973;DHT22;13765;51.166;4.466;2022-10-16T09:18:11;17.30;99.90
25973;DHT22;13765;51.166;4.466;2022-10-16T09:20:56;17.50;99.90
25973;DHT22;13765;51.166;4.466;2022-10-16T09:23:29;17.50;99.90
25973;DHT22;13765;51.166;4.466;2022-10-16T09:25:56;17.60;99.90
25973;DHT22;13765;51.166;4.466;2022-10-16T09:28:24;17.60;99.90
25973;DHT22;13765;51.166;4.466;2022-10-16T09:30:53;17.90;99.90
25973;DHT22;13765;51.166;4.466;2022-10-16T09:33:20;17.80;99.90
25973;DHT22;13765;51.166;4.466;2022-10-16T09:35:54;17.70;99.90
25973;DHT22;13765;51.166;4.466;2022-10-16T09:38:27;17.60;99.90
25973;DHT22;13765;51.166;4.466;2022-10-16T09:40:55;17.70;99.90
25973;DHT22;13765;51.166;4.466;2022-10-16T09:45:58;17.80;99.90
25973;DHT22;13765;51.166;4.466;2022-10-16T09:48:34;17.90;99.90
25973;DHT22;13765;51.166;4.466;2022-10-16T09:51:20;18.30;99.90
25973;DHT22;13765;51.166;4.466;2022-10-16T09:53:47;18.20;99.90
25973;DHT22;13765;51.166;4.466;2022-10-16T09:56:22;18.30;99.90
25973;DHT22;13765;51.166;4.466;2022-10-16T09:58:59;18.30;99.90
25973;DHT22;13765;51.166;4.466;2022-10-16T10:01:31;18.40;99.90
25973;DHT22;13765;51.166;4.466;2022-10-16T10:03:58;18.50;99.90
25973;DHT22;13765;51.166;4.466;2022-10-16T10:06:30;18.50;99.90
25973;DHT22;13765;51.166;4.466;2022-10-16T10:09:24;18.70;99.90
25973;DHT22;13765;51.166;4.466;2022-10-16T10:11:56;18.80;99.90
25973;DHT22;13765;51.166;4.466;2022-10-16T10:14:28;18.90;99.90
25973;DHT22;13765;51.166;4.466;2022-10-16T10:17:24;18.90;99.90
25973;DHT22;13765;51.166;4.466;2022-10-16T10:19:55;18.80;99.90
25973;DHT22;13765;51.166;4.466;2022-10-16T10:32:55;19.00;99.90
25973;DHT22;13765;51.166;4.466;2022-10-16T10:35:28;19.10;99.90
25973;DHT22;13765;51.166;4.466;2022-10-16T10:38:16;19.20;99.90
25973;DHT22;13765;51.166;4.466;2022-10-16T10:41:10;19.00;99.90
25973;DHT22;13765;51.166;4.466;2022-10-16T10:46:25;18.80;99.90
25973;DHT22;13765;51.166;4.466;2022-10-16T11:03:38;19.30;99.90
25973;DHT22;13765;51.166;4.466;2022-10-16T11:08:49;19.20;99.90
25973;DHT22;13765;51.166;4.466;2022-10-16T11:16:43;19.60;99.90
25973;DHT22;13765;51.166;4.466;2022-10-16T11:19:14;20.00;99.90
25973;DHT22;13765;51.166;4.466;2022-10-16T11:22:15;20.10;99.90
25973;DHT22;13765;51.166;4.466;2022-10-16T11:25:13;20.30;99.90
25973;DHT22;13765;51.166;4.466;2022-10-16T11:30:28;20.50;99.90
25973;DHT22;13765;51.166;4.466;2022-10-16T11:45:02;20.60;99.90
25973;DHT22;13765;51.166;4.466;2022-10-16T11:47:24;20.60;99.90
25973;DHT22;13765;51.166;4.466;2022-10-16T11:50:29;20.90;99.90
25973;DHT22;13765;51.166;4.466;2022-10-16T11:55:51;21.00;99.90
25973;DHT22;13765;51.166;4.466;2022-10-16T12:01:22;20.50;99.90
25973;DHT22;13765;51.166;4.466;2022-10-16T12:06:58;20.40;99.90
25973;DHT22;13765;51.166;4.466;2022-10-16T12:09:32;20.40;99.90
25973;DHT22;13765;51.166;4.466;2022-10-16T12:12:04;20.70;99.90
25973;DHT22;13765;51.166;4.466;2022-10-16T12:14:38;20.80;99.90
25973;DHT22;13765;51.166;4.466;2022-10-16T12:17:35;21.00;99.90
25973;DHT22;13765;51.166;4.466;2022-10-16T12:30:29;20.20;99.90
25973;DHT22;13765;51.166;4.466;2022-10-16T12:32:58;20.10;99.90
25973;DHT22;13765;51.166;4.466;2022-10-16T12:35:33;20.00;99.90
25973;DHT22;13765;51.166;4.466;2022-10-16T12:41:03;19.90;99.90
25973;DHT22;13765;51.166;4.466;2022-10-16T12:43:42;20.00;99.90
25973;DHT22;13765;51.166;4.466;2022-10-16T12:48:38;20.00;99.90
25973;DHT22;13765;51.166;4.466;2022-10-16T12:54:15;19.90;99.90
25973;DHT22;13765;51.166;4.466;2022-10-16T13:20:17;20.40;99.90
25973;DHT22;13765;51.166;4.466;2022-10-16T13:23:03;20.20;99.90
25973;DHT22;13765;51.166;4.466;2022-10-16T13:28:22;20.60;99.90
25973;DHT22;13765;51.166;4.466;2022-10-16T13:30:56;20.70;99.90
25973;DHT22;13765;51.166;4.466;2022-10-16T13:33:38;20.90;99.90
25973;DHT22;13765;51.166;4.466;2022-10-16T13:36:28;21.10;99.90
25973;DHT22;13765;51.166;4.466;2022-10-16T13:41:35;21.00;99.90
25973;DHT22;13765;51.166;4.466;2022-10-16T13:44:04;20.90;99.90
25973;DHT22;13765;51.166;4.466;2022-10-16T13:46:30;21.00;99.90
25973;DHT22;13765;51.166;4.466;2022-10-16T13:49:03;20.90;99.90
25973;DHT22;13765;51.166;4.466;2022-10-16T13:51:31;20.90;99.90
25973;DHT22;13765;51.166;4.466;2022-10-16T13:53:59;21.00;99.90
25973;DHT22;13765;51.166;4.466;2022-10-16T13:56:30;21.20;99.90
25973;DHT22;13765;51.166;4.466;2022-10-16T13:59:04;21.20;99.90
25973;DHT22;13765;51.166;4.466;2022-10-16T14:01:34;21.20;99.90
25973;DHT22;13765;51.166;4.466;2022-10-16T14:04:11;21.10;99.90
25973;DHT22;13765;51.166;4.466;2022-10-16T14:06:42;21.10;99.90
25973;DHT22;13765;51.166;4.466;2022-10-16T14:09:29;21.20;99.90
25973;DHT22;13765;51.166;4.466;2022-10-16T14:12:08;21.20;99.90
25973;DHT22;13765;51.166;4.466;2022-10-16T14:14:42;21.20;99.90
25973;DHT22;13765;51.166;4.466;2022-10-16T14:17:29;21.20;99.90
25973;DHT22;13765;51.166;4.466;2022-10-16T14:19:59;21.10;99.90
25973;DHT22;13765;51.166;4.466;2022-10-16T14:22:43;20.90;99.90
25973;DHT22;13765;51.166;4.466;2022-10-16T14:25:23;20.80;99.90
25973;DHT22;13765;51.166;4.466;2022-10-16T14:28:21;20.80;99.90
25973;DHT22;13765;51.166;4.466;2022-10-16T14:30:53;20.80;99.90
25973;DHT22;13765;51.166;4.466;2022-10-16T14:36:27;20.90;99.90
25973;DHT22;13765;51.166;4.466;2022-10-16T14:39:05;20.90;99.90
25973;DHT22;13765;51.166;4.466;2022-10-16T14:41:41;20.80;99.90
25973;DHT22;13765;51.166;4.466;2022-10-16T14:44:12;20.70;99.90
25973;DHT22;13765;51.166;4.466;2022-10-16T14:46:40;20.80;99.90
25973;DHT22;13765;51.166;4.466;2022-10-16T14:51:36;20.60;99.90
25973;DHT22;13765;51.166;4.466;2022-10-16T14:54:07;20.40;99.90
25973;DHT22;13765;51.166;4.466;2022-10-16T14:56:49;20.30;99.90
25973;DHT22;13765;51.166;4.466;2022-10-16T14:59:27;20.10;99.90
25973;DHT22;13765;51.166;4.466;2022-10-16T15:01:56;20.10;99.90
25973;DHT22;13765;51.166;4.466;2022-10-16T15:04:24;20.00;99.90
25973;DHT22;13765;51.166;4.466;2022-10-16T15:06:50;20.00;99.90
25973;DHT22;13765;51.166;4.466;2022-10-16T15:09:16;19.80;99.90
25973;DHT22;13765;51.166;4.466;2022-10-16T15:11:42;19.70;99.90
25973;DHT22;13765;51.166;4.466;2022-10-16T15:14:13;19.70;99.90
25973;DHT22;13765;51.166;4.466;2022-10-16T15:16:39;19.70;99.90
25973;DHT22;13765;51.166;4.466;2022-10-16T15:19:10;19.70;99.90
25973;DHT22;13765;51.166;4.466;2022-10-16T15:21:36;19.70;99.90
25973;DHT22;13765;51.166;4.466;2022-10-16T15:24:09;19.70;99.90
25973;DHT22;13765;51.166;4.466;2022-10-16T15:26:36;19.60;99.90
25973;DHT22;13765;51.166;4.466;2022-10-16T15:29:02;19.60;99.90
25973;DHT22;13765;51.166;4.466;2022-10-16T15:31:28;19.60;99.90
25973;DHT22;13765;51.166;4.466;2022-10-16T15:33:54;19.50;99.90
25973;DHT22;13765;51.166;4.466;2022-10-16T15:36:27;19.50;99.90
25973;DHT22;13765;51.166;4.466;2022-10-16T15:38:54;19.50;99.90
25973;DHT22;13765;51.166;4.466;2022-10-16T15:41:21;19.40;99.90
25973;DHT22;13765;51.166;4.466;2022-10-16T15:43:51;19.40;99.90
25973;DHT22;13765;51.166;4.466;2022-10-16T15:46:19;19.30;99.90
25973;DHT22;13765;51.166;4.466;2022-10-16T15:48:48;19.20;99.90
25973;DHT22;13765;51.166;4.466;2022-10-16T15:51:18;19.20;99.90
25973;DHT22;13765;51.166;4.466;2022-10-16T15:53:44;19.10;99.90
25973;DHT22;13765;51.166;4.466;2022-10-16T15:56:14;19.00;99.90
25973;DHT22;13765;51.166;4.466;2022-10-16T15:58:40;19.00;99.90
25973;DHT22;13765;51.166;4.466;2022-10-16T16:01:06;18.90;99.90
25973;DHT22;13765;51.166;4.466;2022-10-16T16:03:38;18.90;99.90
25973;DHT22;13765;51.166;4.466;2022-10-16T16:06:08;18.90;99.90
25973;DHT22;13765;51.166;4.466;2022-10-16T16:08:34;18.80;99.90
25973;DHT22;13765;51.166;4.466;2022-10-16T16:11:05;18.70;99.90
25973;DHT22;13765;51.166;4.466;2022-10-16T16:13:33;18.60;99.90
25973;DHT22;13765;51.166;4.466;2022-10-16T16:16:05;18.50;99.90
25973;DHT22;13765;51.166;4.466;2022-10-16T16:18:36;18.50;99.90
25973;DHT22;13765;51.166;4.466;2022-10-16T16:21:02;18.50;99.90
25973;DHT22;13765;51.166;4.466;2022-10-16T16:23:28;18.40;99.90
25973;DHT22;13765;51.166;4.466;2022-10-16T16:26:10;18.30;99.90
25973;DHT22;13765;51.166;4.466;2022-10-16T16:28:40;18.20;99.90
25973;DHT22;13765;51.166;4.466;2022-10-16T16:31:11;18.20;99.90
25973;DHT22;13765;51.166;4.466;2022-10-16T16:33:37;18.00;99.90
25973;DHT22;13765;51.166;4.466;2022-10-16T16:36:06;18.00;99.90
25973;DHT22;13765;51.166;4.466;2022-10-16T16:38:35;18.00;99.90
25973;DHT22;13765;51.166;4.466;2022-10-16T16:41:18;17.90;99.90
25973;DHT22;13765;51.166;4.466;2022-10-16T16:43:48;17.90;99.90
25973;DHT22;13765;51.166;4.466;2022-10-16T16:46:17;17.90;99.90
25973;DHT22;13765;51.166;4.466;2022-10-16T16:48:42;17.90;99.90
25973;DHT22;13765;51.166;4.466;2022-10-16T16:51:14;17.80;99.90
25973;DHT22;13765;51.166;4.466;2022-10-16T16:53:46;17.70;99.90
25973;DHT22;13765;51.166;4.466;2022-10-16T16:56:14;17.70;99.90
25973;DHT22;13765;51.166;4.466;2022-10-16T16:58:45;17.70;99.90
25973;DHT22;13765;51.166;4.466;2022-10-16T17:01:11;17.70;99.90
25973;DHT22;13765;51.166;4.466;2022-10-16T17:03:37;17.60;99.90
25973;DHT22;13765;51.166;4.466;2022-10-16T17:06:07;17.60;99.90
25973;DHT22;13765;51.166;4.466;2022-10-16T17:08:36;17.50;99.90
25973;DHT22;13765;51.166;4.466;2022-10-16T17:11:02;17.50;99.90
25973;DHT22;13765;51.166;4.466;2022-10-16T17:13:33;17.40;99.90
25973;DHT22;13765;51.166;4.466;2022-10-16T17:16:04;17.40;99.90
25973;DHT22;13765;51.166;4.466;2022-10-16T17:18:30;17.40;99.90
25973;DHT22;13765;51.166;4.466;2022-10-16T17:21:02;17.40;99.90
25973;DHT22;13765;51.166;4.466;2022-10-16T17:23:30;17.40;99.90
25973;DHT22;13765;51.166;4.466;2022-10-16T17:25:56;17.40;99.90
25973;DHT22;13765;51.166;4.466;2022-10-16T17:28:23;17.40;99.90
25973;DHT22;13765;51.166;4.466;2022-10-16T17:30:48;17.40;99.90
25973;DHT22;13765;51.166;4.466;2022-10-16T17:33:14;17.40;99.90
25973;DHT22;13765;51.166;4.466;2022-10-16T17:35:45;17.50;99.90
25973;DHT22;13765;51.166;4.466;2022-10-16T17:38:14;17.40;99.90
25973;DHT22;13765;51.166;4.466;2022-10-16T17:40:41;17.40;99.90
25973;DHT22;13765;51.166;4.466;2022-10-16T17:43:08;17.40;99.90
25973;DHT22;13765;51.166;4.466;2022-10-16T17:45:36;17.30;99.90
25973;DHT22;13765;51.166;4.466;2022-10-16T17:48:03;17.30;99.90
25973;DHT22;13765;51.166;4.466;2022-10-16T17:50:31;17.30;99.90
25973;DHT22;13765;51.166;4.466;2022-10-16T17:52:57;17.20;99.90
25973;DHT22;13765;51.166;4.466;2022-10-16T17:55:23;17.20;99.90
25973;DHT22;13765;51.166;4.466;2022-10-16T17:57:54;17.20;99.90
25973;DHT22;13765;51.166;4.466;2022-10-16T18:00:22;17.20;99.90
25973;DHT22;13765;51.166;4.466;2022-10-16T18:02:49;17.20;99.90
25973;DHT22;13765;51.166;4.466;2022-10-16T18:05:17;17.10;99.90
25973;DHT22;13765;51.166;4.466;2022-10-16T18:07:45;17.10;99.90
25973;DHT22;13765;51.166;4.466;2022-10-16T18:10:14;17.10;99.90
25973;DHT22;13765;51.166;4.466;2022-10-16T18:12:39;17.10;99.90
25973;DHT22;13765;51.166;4.466;2022-10-16T18:15:08;17.00;99.90
25973;DHT22;13765;51.166;4.466;2022-10-16T18:17:35;17.00;99.90
25973;DHT22;13765;51.166;4.466;2022-10-16T18:20:08;17.00;99.90
25973;DHT22;13765;51.166;4.466;2022-10-16T18:22:34;17.00;99.90